Time;durP1;ratioP1;P1;durP2;ratioP2;P2;SDS_P1;SDS_P2;PMS_P1;PMS_P2;Temp;Humidity;BMP_temperature;BMP_pressure;BME280_temperature;BME280_humidity;BME280_pressure;Samples;Min_cycle;Max_cycle;Signal;HPM_P1;HPM_P2
2022/09/16 00:00:46;;;;;;;1.00;0.55;;;;;;;11.60;41.48;96536.19;6105393;29;20142;-68
2022/09/16 00:03:53;;;;;;;2.33;0.73;;;;;;;11.60;41.36;96533.56;6105313;29;20498;-69
2022/09/16 00:06:54;;;;;;;1.58;0.70;;;;;;;11.61;41.28;96530.81;6105341;29;20067;-68
2022/09/16 00:09:58;;;;;;;1.15;0.60;;;;;;;11.59;41.36;96532.72;6105235;29;20044;-69
2022/09/16 00:13:03;;;;;;;0.60;0.60;;;;;;;11.62;41.49;96521.94;6104944;29;20422;-69
2022/09/16 00:16:10;;;;;;;0.50;0.50;;;;;;;11.57;41.63;96529.34;6105276;29;20048;-69
2022/09/16 00:19:12;;;;;;;3.50;0.80;;;;;;;11.51;41.84;96529.81;6104804;29;20063;-69
2022/09/16 00:22:13;;;;;;;2.60;0.88;;;;;;;11.49;41.76;96529.06;6104747;29;20056;-68
2022/09/16 00:25:14;;;;;;;1.38;0.75;;;;;;;11.56;41.75;96537.38;6105033;29;20072;-68
2022/09/16 00:28:21;;;;;;;1.27;0.50;;;;;;;11.55;41.80;96533.91;6104746;29;20052;-68
2022/09/16 00:31:23;;;;;;;0.55;0.55;;;;;;;11.52;41.90;96526.25;6104780;29;20046;-68
2022/09/16 00:34:28;;;;;;;0.77;0.47;;;;;;;11.55;41.65;96530.41;6104618;29;20541;-68
2022/09/16 00:37:32;;;;;;;1.98;0.60;;;;;;;11.64;41.74;96519.22;6104269;29;20454;-68
2022/09/16 00:40:42;;;;;;;1.15;0.80;;;;;;;11.76;41.34;96512.19;6104389;29;20056;-69
2022/09/16 00:43:57;;;;;;;1.20;0.60;;;;;;;11.75;41.33;96516.63;6104293;29;20046;-68
2022/09/16 00:46:58;;;;;;;1.60;0.80;;;;;;;11.65;41.31;96513.81;6104520;29;20429;-69
2022/09/16 00:50:15;;;;;;;1.67;0.50;;;;;;;11.55;41.49;96504.94;6103793;29;20155;-68
2022/09/16 00:53:23;;;;;;;0.77;0.45;;;;;;;11.54;41.65;96519.03;6104423;29;20112;-68
2022/09/16 00:56:27;;;;;;;2.72;0.98;;;;;;;11.59;41.47;96524.81;6118698;29;20452;-68
2022/09/16 00:59:37;;;;;;;1.40;0.98;;;;;;;11.61;41.24;96519.44;6104206;29;20052;-70
2022/09/16 01:02:42;;;;;;;2.95;0.70;;;;;;;11.67;40.80;96516.34;6104124;29;20066;-69
2022/09/16 01:05:43;;;;;;;1.83;0.70;;;;;;;11.63;41.03;96517.50;6104088;29;20076;-69
2022/09/16 01:08:45;;;;;;;1.52;0.77;;;;;;;11.64;41.07;96519.22;6103657;29;20384;-69
2022/09/16 01:11:47;;;;;;;2.97;0.70;;;;;;;11.43;41.50;96516.34;6102604;29;20056;-69
2022/09/16 01:14:54;;;;;;;2.20;0.90;;;;;;;11.33;41.78;96518.84;6103963;29;20130;-68
2022/09/16 01:18:13;;;;;;;1.15;0.63;;;;;;;11.18;42.34;96523.44;6103790;29;20052;-69
2022/09/16 01:21:43;;;;;;;3.58;0.70;;;;;;;11.17;42.27;96513.84;6103909;29;20112;-69
2022/09/16 01:25:02;;;;;;;2.40;0.93;;;;;;;11.30;41.99;96515.59;6103703;29;20044;-69
2022/09/16 01:28:19;;;;;;;0.70;0.63;;;;;;;11.35;42.09;96513.44;6103532;29;20043;-69
2022/09/16 01:31:28;;;;;;;1.67;0.80;;;;;;;11.43;41.74;96517.19;6103011;29;20074;-69
2022/09/16 01:34:48;;;;;;;1.25;0.70;;;;;;;11.45;41.70;96517.09;6103496;29;20058;-68
2022/09/16 01:38:10;;;;;;;0.80;0.57;;;;;;;11.24;42.14;96520.38;6102709;29;20135;-69
2022/09/16 01:41:33;;;;;;;1.73;1.00;;;;;;;11.03;42.58;96524.53;6103385;29;20040;-69
2022/09/16 01:44:49;;;;;;;0.82;0.63;;;;;;;10.84;43.20;96521.53;6101843;29;20048;-69
2022/09/16 01:48:31;;;;;;;4.75;1.60;;;;;;;10.73;43.55;96523.16;6102691;29;20052;-69
2022/09/16 01:51:40;;;;;;;1.77;1.05;;;;;;;10.65;43.72;96520.25;6101750;29;20127;-69
2022/09/16 01:55:04;;;;;;;4.47;2.63;;;;;;;10.59;43.69;96515.41;6102376;29;20044;-69
2022/09/16 01:58:17;;;;;;;2.70;1.38;;;;;;;10.58;43.75;96508.44;6102683;29;20062;-69
2022/09/16 02:01:30;;;;;;;2.05;0.80;;;;;;;10.64;43.79;96509.81;6102614;29;20052;-69
2022/09/16 02:04:41;;;;;;;2.22;1.10;;;;;;;10.69;43.61;96516.44;6102345;29;20079;-69
2022/09/16 02:07:50;;;;;;;1.15;0.70;;;;;;;10.86;43.41;96512.59;6102510;29;20495;-69
2022/09/16 02:10:58;;;;;;;1.90;1.08;;;;;;;10.98;42.97;96510.88;6102317;29;20059;-68
2022/09/16 02:14:13;;;;;;;1.77;0.93;;;;;;;11.05;42.64;96514.75;6101913;29;20414;-68
2022/09/16 02:17:23;;;;;;;1.88;1.15;;;;;;;11.21;42.10;96512.69;6102219;29;20044;-68
2022/09/16 02:20:28;;;;;;;1.20;1.10;;;;;;;11.30;41.79;96520.88;6102247;29;20048;-70
2022/09/16 02:23:36;;;;;;;3.42;0.88;;;;;;;11.24;41.54;96517.72;6101872;29;20063;-70
2022/09/16 02:26:43;;;;;;;0.73;0.73;;;;;;;11.11;41.70;96522.19;6101732;29;20055;-69
2022/09/16 02:29:55;;;;;;;1.73;1.10;;;;;;;11.10;41.78;96512.63;6102047;29;20052;-68
2022/09/16 02:33:06;;;;;;;1.13;0.80;;;;;;;10.86;42.03;96511.75;6101852;29;20084;-68
2022/09/16 02:36:13;;;;;;;1.23;0.90;;;;;;;10.82;42.27;96520.84;6101880;29;20084;-69
2022/09/16 02:39:22;;;;;;;2.75;1.27;;;;;;;10.70;42.58;96507.59;6101781;29;20058;-69
2022/09/16 02:42:26;;;;;;;1.23;0.75;;;;;;;10.67;42.65;96520.97;6101579;29;20048;-69
2022/09/16 02:45:50;;;;;;;1.45;1.00;;;;;;;10.73;42.74;96522.34;6101667;29;20131;-67
2022/09/16 02:49:24;;;;;;;6.22;2.17;;;;;;;10.98;42.48;96526.66;6095888;29;20503;-68
2022/09/16 02:52:36;;;;;;;5.13;2.83;;;;;;;10.87;42.53;96516.06;6101220;29;20064;-69
2022/09/16 02:55:56;;;;;;;2.30;1.50;;;;;;;11.09;42.34;96510.94;6101496;29;20052;-68
2022/09/16 02:58:57;;;;;;;2.15;1.13;;;;;;;11.17;41.90;96500.69;6101562;29;20062;-69
2022/09/16 03:02:01;;;;;;;2.17;1.35;;;;;;;11.40;41.75;96511.31;6101424;29;20040;-68
2022/09/16 03:05:05;;;;;;;2.53;1.25;;;;;;;11.70;41.06;96505.56;6101622;29;20438;-68
2022/09/16 03:08:10;;;;;;;2.03;1.00;;;;;;;11.87;41.04;96509.59;6101264;29;20070;-69
2022/09/16 03:11:13;;;;;;;3.70;1.00;;;;;;;12.17;40.30;96510.84;6101097;29;20048;-68
2022/09/16 03:14:35;;;;;;;;;;;;;;;12.43;39.90;96514.94;6101741;29;20040;-70
2022/09/16 03:17:53;;;;;;;12.43;6.55;;;;;;;12.68;39.19;96511.22;6101426;29;19923;-69
2022/09/16 03:21:19;;;;;;;2.92;2.00;;;;;;;12.90;38.70;96512.97;6101346;29;20048;-69
2022/09/16 03:24:23;;;;;;;;;;;;;;;13.18;38.29;96513.41;6101661;29;20068;-69
2022/09/16 03:27:34;;;;;;;2.15;0.98;;;;;;;13.30;37.68;96509.78;6101240;29;20312;-69
2022/09/16 03:30:44;;;;;;;1.13;0.85;;;;;;;13.31;37.22;96513.31;6101231;29;20127;-68
2022/09/16 03:34:18;;;;;;;2.72;0.77;;;;;;;13.36;37.11;96504.03;6099910;29;20048;-68
2022/09/16 03:37:26;;;;;;;2.08;1.00;;;;;;;13.29;37.42;96504.66;6095773;29;20502;-69
2022/09/16 03:40:28;;;;;;;2.90;0.90;;;;;;;13.44;37.06;96506.84;6101275;29;20055;-68
2022/09/16 03:43:32;;;;;;;1.27;0.73;;;;;;;13.64;36.82;96509.66;6100644;29;20058;-68
2022/09/16 03:46:36;;;;;;;3.80;2.08;;;;;;;13.80;36.50;96525.94;6101283;29;20044;-68
2022/09/16 03:49:40;;;;;;;;;;;;;;;14.03;36.43;96526.66;6101509;29;20466;-69
2022/09/16 03:52:45;;;;;;;4.80;2.83;;;;;;;14.08;36.17;96513.03;6101180;29;20349;-68
2022/09/16 03:55:48;;;;;;;4.20;1.30;;;;;;;14.26;35.69;96516.75;6100294;29;20426;-68
2022/09/16 03:58:52;;;;;;;;;;;;;;;14.48;35.20;96514.94;6101227;29;20055;-68
2022/09/16 04:01:58;;;;;;;5.97;1.75;;;;;;;14.30;35.64;96512.91;6103789;29;19930;-69
2022/09/16 04:05:00;;;;;;;4.70;1.10;;;;;;;14.38;35.60;96515.72;6105081;29;20135;-68
2022/09/16 04:08:05;;;;;;;1.67;1.00;;;;;;;14.37;35.83;96508.75;6104980;29;20418;-69
2022/09/16 04:11:09;;;;;;;3.72;0.93;;;;;;;14.59;35.77;96510.41;6104547;29;20044;-69
2022/09/16 04:14:13;;;;;;;2.70;0.90;;;;;;;14.80;35.32;96504.19;6104535;29;20515;-69
2022/09/16 04:17:15;;;;;;;3.05;1.20;;;;;;;14.94;34.79;96501.19;6104988;29;20083;-69
2022/09/16 04:20:20;;;;;;;2.67;0.90;;;;;;;15.21;33.95;96513.81;6104909;29;20071;-69
2022/09/16 04:23:25;;;;;;;1.67;0.80;;;;;;;15.05;33.71;96506.34;6105225;29;20134;-68
2022/09/16 04:26:26;;;;;;;4.97;1.73;;;;;;;14.96;34.17;96493.09;6104613;29;20089;-68
2022/09/16 04:29:31;;;;;;;2.13;0.90;;;;;;;15.14;34.03;96498.56;6104777;29;20204;-69
2022/09/16 04:32:35;;;;;;;3.17;1.13;;;;;;;15.32;33.61;96498.75;6104460;29;20055;-69
2022/09/16 04:35:36;;;;;;;3.15;1.00;;;;;;;15.37;33.68;96493.84;6104394;29;20052;-69
2022/09/16 04:38:40;;;;;;;2.17;0.70;;;;;;;15.66;33.61;96509.78;6104449;29;20046;-70
2022/09/16 04:41:44;;;;;;;1.25;0.80;;;;;;;15.89;33.27;96511.19;6104766;29;20040;-69
2022/09/16 04:44:48;;;;;;;1.20;0.60;;;;;;;16.16;32.61;96507.81;6104254;29;20054;-69
2022/09/16 04:47:56;;;;;;;1.08;0.70;;;;;;;16.37;31.97;96498.81;6104378;29;20051;-69
2022/09/16 04:51:09;;;;;;;1.17;0.55;;;;;;;16.58;31.67;96520.66;6104055;29;20060;-69
2022/09/16 04:54:11;;;;;;;2.28;0.77;;;;;;;16.70;31.54;96496.56;6104188;29;20059;-70
2022/09/16 04:57:16;;;;;;;1.35;0.55;;;;;;;17.09;31.09;96515.84;6104006;29;20044;-69
2022/09/16 05:00:23;;;;;;;1.33;0.50;;;;;;;17.34;30.66;96506.34;6103855;29;20043;-68
2022/09/16 05:03:27;;;;;;;2.97;0.70;;;;;;;17.44;30.39;96501.78;6103375;29;20079;-70
2022/09/16 05:06:32;;;;;;;1.33;0.50;;;;;;;17.74;30.46;96507.72;6102374;29;20449;-68
2022/09/16 05:09:36;;;;;;;3.10;0.68;;;;;;;18.01;30.06;96509.47;6103746;29;20048;-68
2022/09/16 05:12:40;;;;;;;4.63;0.60;;;;;;;18.23;29.57;96508.13;6102783;29;20060;-69
2022/09/16 05:15:41;;;;;;;3.75;0.63;;;;;;;17.84;30.32;96491.72;6103595;29;20524;-69
2022/09/16 05:18:47;;;;;;;3.30;0.70;;;;;;;17.45;30.74;96498.13;6103446;29;20040;-68
2022/09/16 05:21:51;;;;;;;1.13;0.65;;;;;;;17.26;30.16;96492.94;6103401;29;20044;-69
2022/09/16 05:24:52;;;;;;;2.58;0.98;;;;;;;17.11;30.07;96478.50;6103413;29;20039;-69
2022/09/16 05:27:54;;;;;;;1.00;0.68;;;;;;;17.38;29.28;96497.09;6103085;29;20040;-69
2022/09/16 05:31:13;;;;;;;1.33;0.60;;;;;;;18.22;27.94;96498.47;6103211;29;20052;-69
2022/09/16 05:34:22;;;;;;;6.38;1.55;;;;;;;19.08;26.80;96508.28;6103147;29;20036;-69
2022/09/16 05:37:28;;;;;;;2.42;0.93;;;;;;;21.86;23.00;96502.47;6101675;29;20101;-69
2022/09/16 05:40:29;;;;;;;1.42;0.60;;;;;;;25.19;19.37;96500.91;6102934;29;20123;-69
2022/09/16 05:43:34;;;;;;;4.28;0.90;;;;;;;28.57;16.93;96510.28;6102907;29;20044;-68
2022/09/16 05:46:44;;;;;;;1.33;0.57;;;;;;;31.47;14.55;96507.38;6101853;29;20044;-69
2022/09/16 05:49:48;;;;;;;2.42;0.70;;;;;;;33.85;13.19;96520.72;6102746;29;20054;-68
2022/09/16 05:52:50;;;;;;;1.98;0.50;;;;;;;34.63;11.70;96520.44;6102503;29;20150;-69
2022/09/16 05:56:04;;;;;;;1.90;0.50;;;;;;;33.92;11.92;96513.19;6102638;29;20048;-69
2022/09/16 05:59:10;;;;;;;1.02;0.47;;;;;;;32.48;12.51;96517.72;6102648;29;20047;-69
2022/09/16 06:02:13;;;;;;;0.85;0.45;;;;;;;33.37;11.65;96511.41;6102593;29;20051;-69
2022/09/16 06:05:17;;;;;;;0.43;0.20;;;;;;;31.50;12.71;96514.22;6102523;29;20422;-68
2022/09/16 06:08:21;;;;;;;3.03;0.40;;;;;;;28.56;14.87;96507.78;6102418;29;20134;-69
2022/09/16 06:11:28;;;;;;;2.30;0.50;;;;;;;26.00;16.69;96502.84;6100522;29;20056;-68
2022/09/16 06:14:34;;;;;;;1.65;0.43;;;;;;;24.01;18.42;96495.31;6102247;29;20044;-70
2022/09/16 06:17:41;;;;;;;3.15;0.50;;;;;;;22.49;19.81;96491.56;6102078;29;20044;-70
2022/09/16 06:20:47;;;;;;;1.52;0.50;;;;;;;22.62;20.18;96489.91;6102263;29;20056;-70
2022/09/16 06:23:52;;;;;;;3.10;0.50;;;;;;;26.93;16.81;96500.13;6101760;29;20135;-69
2022/09/16 06:26:54;;;;;;;1.75;0.50;;;;;;;29.96;14.24;96490.75;6102057;29;20070;-69
2022/09/16 06:29:55;;;;;;;1.48;0.40;;;;;;;29.42;14.15;96496.06;6101806;29;20063;-68
2022/09/16 06:32:57;;;;;;;0.60;0.30;;;;;;;26.77;16.04;96483.31;6102435;29;20422;-68
2022/09/16 06:36:09;;;;;;;2.78;0.57;;;;;;;24.84;18.04;96492.84;6101880;29;20562;-69
2022/09/16 06:39:12;;;;;;;2.42;0.32;;;;;;;23.73;19.10;96479.13;6101761;29;20060;-69
2022/09/16 06:42:16;;;;;;;2.83;0.55;;;;;;;22.96;19.82;96471.63;6101821;29;20056;-68
2022/09/16 06:45:21;;;;;;;2.20;0.50;;;;;;;22.29;20.20;96478.69;6101904;29;20048;-69
2022/09/16 06:48:26;;;;;;;3.65;0.50;;;;;;;22.23;20.35;96476.72;6101454;29;20052;-69
2022/09/16 06:51:36;;;;;;;8.38;5.03;;;;;;;21.90;20.91;96466.25;6101525;29;20048;-69
2022/09/16 06:54:37;;;;;;;3.05;1.10;;;;;;;22.22;20.65;96469.69;6101608;29;20138;-69
2022/09/16 06:57:41;;;;;;;1.35;0.65;;;;;;;22.66;19.87;96474.28;6101521;29;20052;-69
2022/09/16 07:00:45;;;;;;;2.22;0.60;;;;;;;22.15;20.79;96474.09;6101431;29;20080;-69
2022/09/16 07:03:51;;;;;;;1.15;0.40;;;;;;;21.64;21.30;96466.63;6101928;29;20557;-69
2022/09/16 07:06:52;;;;;;;;;;;;;;;21.68;21.19;96470.63;6101364;29;20139;-69
2022/09/16 07:09:53;;;;;;;1.35;0.80;;;;;;;21.35;21.51;96466.47;6101489;29;19962;-69
2022/09/16 07:13:00;;;;;;;1.60;0.65;;;;;;;20.92;21.59;96456.19;6101498;29;20051;-69
2022/09/16 07:16:09;;;;;;;1.10;0.50;;;;;;;20.74;22.14;96463.59;6101535;29;20043;-68
2022/09/16 07:19:11;;;;;;;1.02;0.60;;;;;;;21.07;21.68;96443.72;6101198;29;20040;-68
2022/09/16 07:22:18;;;;;;;1.45;0.50;;;;;;;23.17;19.93;96473.53;6101216;29;20056;-69
2022/09/16 07:25:21;;;;;;;1.40;0.57;;;;;;;26.74;16.62;96478.34;6101254;29;20533;-68
2022/09/16 07:28:28;;;;;;;0.93;0.47;;;;;;;26.66;16.52;96470.47;6101236;29;20081;-68
2022/09/16 07:31:36;;;;;;;0.73;0.30;;;;;;;26.34;16.87;96472.97;6101224;29;20048;-68
2022/09/16 07:34:38;;;;;;;1.88;1.00;;;;;;;25.81;17.36;96456.72;6101105;29;20055;-69
2022/09/16 07:37:39;;;;;;;0.95;0.45;;;;;;;25.83;17.75;96449.31;6105276;29;20403;-68
2022/09/16 07:40:46;;;;;;;2.17;0.75;;;;;;;25.22;18.26;96441.25;6105737;29;20058;-69
2022/09/16 07:43:50;;;;;;;1.77;0.57;;;;;;;24.24;18.75;96464.69;6105895;29;20039;-68
2022/09/16 07:46:54;;;;;;;1.52;0.50;;;;;;;23.82;19.51;96463.72;6105984;29;20055;-68
2022/09/16 07:50:01;;;;;;;1.85;0.70;;;;;;;23.88;19.66;96461.06;6105565;29;20497;-69
2022/09/16 07:53:05;;;;;;;3.05;0.50;;;;;;;23.80;19.56;96452.31;6105387;29;20048;-68
2022/09/16 07:56:14;;;;;;;1.60;0.65;;;;;;;23.60;19.66;96463.66;6105333;29;20044;-69
2022/09/16 07:59:19;;;;;;;1.05;0.30;;;;;;;23.35;19.80;96448.94;6105384;29;20044;-69
2022/09/16 08:02:25;;;;;;;1.38;0.57;;;;;;;23.43;19.75;96456.88;6105346;29;20036;-69
2022/09/16 08:05:27;;;;;;;2.03;0.60;;;;;;;24.61;19.15;96461.66;6105073;29;20055;-68
2022/09/16 08:08:31;;;;;;;3.92;0.50;;;;;;;25.71;17.97;96472.50;6105227;29;20036;-69
2022/09/16 08:11:37;;;;;;;5.88;1.95;;;;;;;26.03;17.83;96465.50;6104882;29;20064;-69
2022/09/16 08:14:42;;;;;;;1.88;0.80;;;;;;;26.48;17.04;96472.97;6104945;29;20048;-68
2022/09/16 08:17:48;;;;;;;1.60;0.75;;;;;;;26.30;17.03;96474.44;6105049;29;20063;-70
2022/09/16 08:20:55;;;;;;;1.70;0.50;;;;;;;26.76;17.01;96470.88;6104845;29;20410;-68
2022/09/16 08:24:01;;;;;;;1.17;0.40;;;;;;;28.19;15.47;96467.91;6104693;29;20040;-67
2022/09/16 08:27:05;;;;;;;1.55;0.52;;;;;;;27.91;15.26;96473.72;6104844;29;20138;-68
2022/09/16 08:30:07;;;;;;;3.10;0.50;;;;;;;26.23;16.91;96464.69;6104655;29;20059;-70
2022/09/16 08:33:14;;;;;;;6.20;1.08;;;;;;;24.91;18.39;96477.56;6104647;29;20418;-69
2022/09/16 08:36:21;;;;;;;2.40;1.10;;;;;;;23.88;18.76;96468.31;6104603;29;20055;-69
2022/09/16 08:39:26;;;;;;;1.52;0.60;;;;;;;22.98;19.71;96464.19;6104416;29;20150;-69
2022/09/16 08:42:48;;;;;;;2.60;0.60;;;;;;;22.83;19.92;96470.38;6104391;29;20182;-69
2022/09/16 08:46:33;;;;;;;1.55;0.38;;;;;;;23.95;19.16;96469.22;6104125;29;20060;-69
2022/09/16 08:49:40;;;;;;;3.15;0.63;;;;;;;23.74;19.04;96461.97;6103889;29;20052;-70
2022/09/16 08:52:44;;;;;;;2.95;0.50;;;;;;;23.33;19.54;96457.19;6103673;29;20127;-69
2022/09/16 08:55:50;;;;;;;0.55;0.38;;;;;;;23.75;19.30;96463.66;6103894;29;20123;-69
2022/09/16 08:58:55;;;;;;;2.35;0.57;;;;;;;23.88;19.07;96450.31;6104114;29;20044;-69
2022/09/16 09:02:18;;;;;;;1.08;0.40;;;;;;;26.16;17.34;96456.59;6104095;29;20044;-69
2022/09/16 09:05:22;;;;;;;2.83;1.38;;;;;;;26.47;17.07;96460.50;6103931;29;20537;-69
2022/09/16 09:09:10;;;;;;;1.40;0.50;;;;;;;25.69;17.76;96447.59;6104037;29;20055;-69
2022/09/16 09:12:23;;;;;;;1.13;0.55;;;;;;;24.11;18.85;96452.78;6038398;29;20153;-68
2022/09/16 09:15:53;;;;;;;2.33;1.57;;;;;;;23.03;20.04;96440.31;6055245;29;20052;-68
2022/09/16 09:19:37;;;;;;;2.33;1.05;;;;;;;22.40;20.79;96447.91;6103513;29;20048;-68
2022/09/16 09:23:15;;;;;;;0.95;0.70;;;;;;;22.32;20.78;96445.31;6103376;29;20517;-69
2022/09/16 09:26:47;;;;;;;3.85;0.60;;;;;;;22.10;20.98;96442.47;6103484;29;20095;-68
2022/09/16 09:30:06;;;;;;;2.10;0.90;;;;;;;22.04;21.06;96428.97;6103120;29;20059;-69
2022/09/16 09:33:29;;;;;;;5.15;1.80;;;;;;;22.70;20.73;96434.50;6103099;29;20107;-69
2022/09/16 09:36:45;;;;;;;4.50;1.30;;;;;;;23.94;19.42;96427.22;6103204;29;20052;-68
2022/09/16 09:39:55;;;;;;;2.85;1.13;;;;;;;24.16;19.09;96428.03;6102679;29;20044;-68
2022/09/16 09:43:10;;;;;;;1.33;0.80;;;;;;;24.18;19.29;96424.13;6102733;29;20052;-68
2022/09/16 09:46:32;;;;;;;3.17;0.60;;;;;;;24.62;18.88;96428.34;6102945;29;20048;-69
2022/09/16 09:49:45;;;;;;;0.95;0.40;;;;;;;26.42;17.44;96421.50;6102802;29;20048;-68
2022/09/16 09:52:52;;;;;;;3.65;0.60;;;;;;;26.65;16.93;96423.75;6102486;29;20634;-68
2022/09/16 09:56:17;;;;;;;1.95;0.52;;;;;;;26.58;17.34;96425.66;6102678;29;20052;-69
2022/09/16 09:59:27;;;;;;;1.10;0.30;;;;;;;26.99;16.78;96412.84;6102378;29;20040;-69
2022/09/16 10:02:31;;;;;;;2.42;0.73;;;;;;;28.35;15.52;96414.28;6102544;29;20040;-69
2022/09/16 10:05:32;;;;;;;2.10;1.30;;;;;;;30.45;14.01;96417.34;6102360;29;20052;-69
2022/09/16 10:08:46;;;;;;;0.90;0.70;;;;;;;32.72;12.79;96411.28;6102233;29;20079;-69
2022/09/16 10:11:54;;;;;;;0.82;0.50;;;;;;;34.30;11.39;96423.97;6101798;29;20063;-70
2022/09/16 10:14:59;;;;;;;2.30;0.70;;;;;;;33.70;11.18;96409.53;6101641;29;20052;-69
2022/09/16 10:18:02;;;;;;;2.05;0.55;;;;;;;30.94;12.99;96415.19;6102573;29;20060;-69
2022/09/16 10:21:15;;;;;;;1.45;0.50;;;;;;;28.77;14.26;96422.63;6101845;29;20059;-71
2022/09/16 10:24:30;;;;;;;2.13;0.77;;;;;;;27.04;15.99;96404.94;6102035;29;20047;-69
2022/09/16 10:27:36;;;;;;;1.77;0.60;;;;;;;26.41;16.20;96398.28;6101203;29;20475;-68
2022/09/16 10:30:51;;;;;;;5.70;0.80;;;;;;;25.58;17.17;96397.03;6101905;29;20277;-69
2022/09/16 10:33:57;;;;;;;2.65;0.85;;;;;;;24.79;18.04;96393.84;6102020;29;20127;-68
2022/09/16 10:37:18;;;;;;;3.80;0.52;;;;;;;24.64;17.72;96388.63;6101928;29;20044;-69
2022/09/16 10:40:23;;;;;;;2.75;0.65;;;;;;;24.09;18.32;96390.34;6101576;29;20223;-69
2022/09/16 10:43:28;;;;;;;2.75;0.70;;;;;;;24.19;18.05;96387.31;6101717;29;20051;-69
2022/09/16 10:46:32;;;;;;;2.75;0.80;;;;;;;24.04;18.54;96378.53;6101859;29;20079;-68
2022/09/16 10:49:36;;;;;;;3.65;0.98;;;;;;;23.87;18.72;96388.75;6101513;29;20055;-69
2022/09/16 10:52:45;;;;;;;5.63;0.90;;;;;;;23.50;18.91;96382.59;6101111;29;20402;-69
2022/09/16 10:56:02;;;;;;;3.03;0.70;;;;;;;23.36;19.17;96381.66;6101577;29;20048;-69
2022/09/16 10:59:11;;;;;;;3.65;1.05;;;;;;;22.85;19.79;96374.47;6101576;29;20107;-70
2022/09/16 11:02:29;;;;;;;3.78;1.13;;;;;;;22.82;19.70;96379.38;6100633;29;20059;-70
2022/09/16 11:05:45;;;;;;;2.15;0.95;;;;;;;22.74;19.91;96377.63;6101333;29;20052;-69
2022/09/16 11:08:55;;;;;;;3.25;0.70;;;;;;;22.55;19.83;96383.56;6100896;29;20088;-69
2022/09/16 11:12:28;;;;;;;2.92;0.90;;;;;;;22.84;19.65;96377.31;6104377;29;20060;-69
2022/09/16 11:15:41;;;;;;;3.78;0.90;;;;;;;23.14;19.23;96383.47;6106058;29;20051;-69
2022/09/16 11:19:06;;;;;;;10.32;1.80;;;;;;;22.96;19.89;96375.84;6106161;29;20136;-69
2022/09/16 11:22:23;;;;;;;4.53;1.50;;;;;;;23.49;19.45;96370.19;6106240;29;20166;-68
2022/09/16 11:25:55;;;;;;;6.35;1.25;;;;;;;23.31;19.66;96379.53;6106228;29;20058;-68
2022/09/16 11:29:17;;;;;;;4.47;1.63;;;;;;;22.63;20.80;96368.19;6105151;29;20182;-69
2022/09/16 11:32:41;;;;;;;7.13;2.17;;;;;;;22.32;21.56;96368.41;6105363;29;20060;-70
2022/09/16 11:36:02;;;;;;;10.38;2.67;;;;;;;21.94;22.05;96360.44;6098964;29;20052;-68
2022/09/16 11:39:25;;;;;;;5.03;1.83;;;;;;;22.15;21.85;96361.56;6105201;29;20057;-68
2022/09/16 11:42:26;;;;;;;6.50;1.85;;;;;;;21.85;22.10;96361.50;6105828;29;20541;-70
2022/09/16 11:45:43;;;;;;;7.40;1.58;;;;;;;22.46;21.36;96360.56;6104924;29;20063;-69
2022/09/16 11:49:05;;;;;;;8.45;4.40;;;;;;;22.34;21.58;96358.34;6105607;29;20073;-69
2022/09/16 11:52:21;;;;;;;7.47;2.83;;;;;;;21.87;21.88;96354.13;6105281;29;20422;-69
2022/09/16 11:55:49;;;;;;;5.78;1.50;;;;;;;21.70;22.17;96357.97;6105233;29;20099;-70
2022/09/16 11:59:01;;;;;;;8.88;2.40;;;;;;;21.47;22.58;96353.50;6104738;29;20056;-69
2022/09/16 12:02:14;;;;;;;5.57;1.83;;;;;;;21.17;22.81;96351.69;6104977;29;20689;-70
2022/09/16 12:05:20;;;;;;;12.20;5.18;;;;;;;20.98;23.42;96347.66;6105199;29;20059;-69
2022/09/16 12:08:31;;;;;;;10.10;3.72;;;;;;;20.98;23.30;96347.66;6104875;29;20138;-68
2022/09/16 12:11:50;;;;;;;7.68;2.47;;;;;;;21.14;23.18;96352.03;6104429;29;20064;-69
2022/09/16 12:15:05;;;;;;;6.18;2.17;;;;;;;21.24;23.07;96339.28;6104895;29;20532;-70
2022/09/16 12:18:33;;;;;;;8.65;1.90;;;;;;;21.72;22.45;96339.91;6104794;29;20526;-69
2022/09/16 12:22:25;;;;;;;6.57;1.95;;;;;;;22.90;21.21;96341.72;6101082;29;20422;-69
2022/09/16 12:25:38;;;;;;;7.78;1.98;;;;;;;23.48;20.42;96344.38;6104457;29;20048;-69
2022/09/16 12:29:37;;;;;;;8.35;2.10;;;;;;;23.78;20.43;96344.22;6104567;29;20044;-68
2022/09/16 12:33:00;;;;;;;9.20;2.20;;;;;;;23.55;20.53;96347.91;6101908;29;20060;-69
2022/09/16 12:36:15;;;;;;;9.25;4.15;;;;;;;23.07;21.43;96353.91;6104071;29;20180;-68
2022/09/16 12:39:16;;;;;;;8.02;1.98;;;;;;;22.81;21.74;96346.34;6103654;29;20087;-69
2022/09/16 12:42:49;;;;;;;7.63;2.17;;;;;;;22.64;22.34;96350.25;6103929;29;20068;-69
2022/09/16 12:45:50;;;;;;;8.85;2.00;;;;;;;22.30;22.46;96342.81;6103772;29;20139;-69
2022/09/16 12:48:54;;;;;;;9.65;2.22;;;;;;;22.02;22.86;96340.75;6103733;29;20044;-69
2022/09/16 12:52:21;;;;;;;7.47;1.95;;;;;;;21.26;24.25;96338.09;6104113;29;20059;-69
2022/09/16 12:55:28;;;;;;;6.35;1.88;;;;;;;20.72;25.15;96343.47;6104006;29;20079;-70
2022/09/16 12:58:32;;;;;;;9.80;2.38;;;;;;;20.16;26.10;96346.19;6104107;29;20058;-69
2022/09/16 13:01:52;;;;;;;4.97;1.90;;;;;;;19.78;26.82;96352.28;6103370;29;20055;-69
2022/09/16 13:05:03;;;;;;;7.20;2.13;;;;;;;19.50;27.58;96347.25;6103293;29;20510;-70
2022/09/16 13:08:17;;;;;;;11.82;2.00;;;;;;;19.42;27.55;96349.94;6103714;29;20087;-70
2022/09/16 13:11:28;;;;;;;10.80;3.47;;;;;;;19.27;28.33;96352.44;6103302;29;20064;-70
2022/09/16 13:14:59;;;;;;;8.75;4.15;;;;;;;19.17;28.30;96347.28;6103661;29;20047;-69
2022/09/16 13:18:07;;;;;;;8.75;3.35;;;;;;;18.93;28.79;96348.06;6099683;29;20056;-70
2022/09/16 13:21:24;;;;;;;8.07;2.97;;;;;;;18.94;28.97;96346.25;6103584;29;20200;-69
2022/09/16 13:24:35;;;;;;;5.82;2.90;;;;;;;18.78;29.24;96344.41;6102977;29;20048;-70
2022/09/16 13:27:51;;;;;;;6.63;2.97;;;;;;;18.69;29.46;96348.84;6103300;29;20040;-72
2022/09/16 13:30:53;;;;;;;7.97;2.40;;;;;;;18.63;30.19;96350.31;6102741;29;20044;-69
2022/09/16 13:33:57;;;;;;;8.88;2.20;;;;;;;18.53;30.26;96343.47;6102465;29;20067;-69
2022/09/16 13:36:58;;;;;;;10.73;2.40;;;;;;;18.51;30.52;96348.09;6101471;29;20056;-70
2022/09/16 13:40:26;;;;;;;7.18;2.53;;;;;;;18.45;30.68;96349.59;6103097;29;20135;-68
2022/09/16 13:43:49;;;;;;;7.10;2.15;;;;;;;18.30;31.11;96354.69;6102716;29;20466;-70
2022/09/16 13:46:53;;;;;;;5.25;2.15;;;;;;;18.24;31.35;96352.69;6103003;29;20051;-69
2022/09/16 13:50:15;;;;;;;6.03;2.50;;;;;;;18.18;31.87;96356.00;6102850;29;20044;-70
2022/09/16 13:53:28;;;;;;;18.67;7.97;;;;;;;18.18;31.75;96361.31;6102678;29;20075;-69
2022/09/16 13:56:50;;;;;;;16.80;8.07;;;;;;;18.10;31.86;96358.59;6103110;29;20060;-69
2022/09/16 13:59:57;;;;;;;14.85;6.50;;;;;;;18.07;32.19;96356.25;6102598;29;20130;-70
2022/09/16 14:03:11;;;;;;;11.23;5.95;;;;;;;17.98;32.42;96358.06;6102577;29;20462;-69
2022/09/16 14:06:43;;;;;;;10.57;4.55;;;;;;;18.06;32.15;96362.56;6102379;29;20535;-69
2022/09/16 14:10:17;;;;;;;12.70;3.05;;;;;;;17.99;32.66;96372.19;6102370;29;20474;-70
2022/09/16 14:13:22;;;;;;;8.93;2.67;;;;;;;17.90;32.86;96374.81;6102305;29;20059;-69
2022/09/16 14:16:31;;;;;;;5.38;2.75;;;;;;;17.86;33.03;96375.25;6101603;29;20052;-68
2022/09/16 14:19:38;;;;;;;4.95;2.00;;;;;;;17.75;33.28;96368.38;6101073;29;20036;-71
2022/09/16 14:22:46;;;;;;;5.03;2.28;;;;;;;17.72;33.55;96376.66;6102174;29;20044;-69
2022/09/16 14:25:47;;;;;;;6.32;2.15;;;;;;;17.67;33.50;96373.63;6102032;29;20068;-71
2022/09/16 14:29:02;;;;;;;5.88;2.45;;;;;;;17.74;33.38;96377.31;6101977;29;20502;-69
2022/09/16 14:32:12;;;;;;;6.13;2.20;;;;;;;17.57;33.53;96367.56;6101483;29;20363;-69
2022/09/16 14:35:21;;;;;;;9.32;2.40;;;;;;;17.50;33.69;96367.34;6101817;29;20048;-69
2022/09/16 14:38:35;;;;;;;5.05;2.00;;;;;;;17.46;33.73;96376.63;6101647;29;20108;-69
2022/09/16 14:41:52;;;;;;;6.18;1.73;;;;;;;17.40;34.09;96380.72;6101385;29;20450;-68
2022/09/16 14:44:57;;;;;;;4.60;1.63;;;;;;;17.41;34.10;96378.91;6101327;29;20070;-71
2022/09/16 14:48:06;;;;;;;7.78;2.50;;;;;;;17.39;34.34;96376.41;6101599;29;20076;-69
2022/09/16 14:51:19;;;;;;;6.43;3.05;;;;;;;17.36;34.44;96376.72;6101287;29;20084;-68
2022/09/16 14:54:23;;;;;;;7.60;2.97;;;;;;;17.37;34.74;96388.19;6101456;29;20510;-69
2022/09/16 14:57:28;;;;;;;18.23;8.93;;;;;;;17.35;34.78;96383.00;6101005;29;20045;-69